createdAt,value
2023-05-08T00:01:54.996Z,19.55
2023-05-08T00:04:24.574Z,20.15
2023-05-08T00:06:54.388Z,18.33
2023-05-08T00:09:24.030Z,19.38
2023-05-08T00:11:53.548Z,19.80
2023-05-08T00:14:23.132Z,19.45
2023-05-08T00:16:55.271Z,21.27
2023-05-08T00:19:24.864Z,18.48
2023-05-08T00:21:54.357Z,21.20
2023-05-08T00:24:23.892Z,19.73
2023-05-08T00:26:53.624Z,20.90
2023-05-08T00:29:23.152Z,17.70
2023-05-08T00:31:55.301Z,19.42
2023-05-08T00:34:24.875Z,17.90
2023-05-08T00:36:54.627Z,21.60
2023-05-08T00:39:24.127Z,20.95
2023-05-08T00:41:53.694Z,21.10
2023-05-08T00:44:23.248Z,19.20
2023-05-08T00:46:55.420Z,19.58
2023-05-08T00:49:25.380Z,20.42
2023-05-08T00:51:58.314Z,19.90
2023-05-08T00:54:29.861Z,20.05
2023-05-08T00:56:59.860Z,21.10
2023-05-08T00:59:29.823Z,18.05
2023-05-08T01:02:03.746Z,19.25
2023-05-08T01:04:34.612Z,19.80
2023-05-08T01:07:04.842Z,18.88
2023-05-08T01:09:34.604Z,19.15
2023-05-08T01:12:13.615Z,19.35
2023-05-08T01:15:05.074Z,19.73
2023-05-08T01:17:59.149Z,19.55
2023-05-08T01:20:38.190Z,18.98
2023-05-08T01:23:42.321Z,20.08
2023-05-08T01:26:45.732Z,20.85
2023-05-08T01:29:39.685Z,21.83
2023-05-08T01:32:20.069Z,23.60
2023-05-08T01:35:00.288Z,19.38
2023-05-08T01:37:42.329Z,20.40
2023-05-08T01:40:20.193Z,21.40
2023-05-08T01:42:53.533Z,21.35
2023-05-08T01:45:28.496Z,20.17
2023-05-08T01:48:06.373Z,22.02
2023-05-08T01:50:41.190Z,19.40
2023-05-08T01:53:17.129Z,20.30
2023-05-08T01:55:50.751Z,20.52
2023-05-08T01:58:21.604Z,19.15
2023-05-08T02:00:52.748Z,20.33
2023-05-08T02:03:26.708Z,19.50
2023-05-08T02:05:58.417Z,17.27
2023-05-08T02:08:29.424Z,18.60
2023-05-08T02:11:00.662Z,20.35
2023-05-08T02:13:31.939Z,19.42
2023-05-08T02:16:03.163Z,19.90
2023-05-08T02:18:37.122Z,19.15
2023-05-08T02:21:09.638Z,18.85
2023-05-08T02:23:39.714Z,19.88
2023-05-08T02:26:09.642Z,18.63
2023-05-08T02:28:39.822Z,17.90
2023-05-08T02:31:10.851Z,18.23
2023-05-08T02:33:45.163Z,18.15
2023-05-08T02:36:18.967Z,17.13
2023-05-08T02:38:53.091Z,17.17
2023-05-08T02:41:24.063Z,19.15
2023-05-08T02:43:54.278Z,19.50
2023-05-08T02:46:28.542Z,17.13
2023-05-08T02:49:04.718Z,16.73
2023-05-08T02:54:13.564Z,17.90
2023-05-08T02:56:53.254Z,15.88
2023-05-08T02:59:30.943Z,16.23
2023-05-08T03:02:07.621Z,16.40
2023-05-08T03:04:45.086Z,19.00
2023-05-08T03:07:15.849Z,19.08
2023-05-08T03:09:50.223Z,18.27
2023-05-08T03:12:24.905Z,16.52
2023-05-08T03:15:03.016Z,17.27
2023-05-08T03:17:35.352Z,17.38
2023-05-08T03:20:11.089Z,18.42
2023-05-08T03:22:43.574Z,15.85
2023-05-08T03:25:16.184Z,17.35
2023-05-08T03:27:47.815Z,16.83
2023-05-08T03:30:19.032Z,17.38
2023-05-08T03:32:49.687Z,16.60
2023-05-08T03:35:22.945Z,16.98
2023-05-08T03:37:53.211Z,17.15
2023-05-08T03:40:22.950Z,17.67
2023-05-08T03:42:53.295Z,18.08
2023-05-08T03:45:23.526Z,14.95
2023-05-08T03:47:55.864Z,13.93
2023-05-08T03:50:28.364Z,11.93
2023-05-08T03:52:58.880Z,9.38
2023-05-08T03:55:28.688Z,8.85
2023-05-08T03:58:04.512Z,10.40
2023-05-08T04:00:44.602Z,10.70
2023-05-08T04:03:33.388Z,11.18
2023-05-08T04:06:14.148Z,11.68
2023-05-08T04:08:47.782Z,10.93
2023-05-08T04:11:28.164Z,13.57
2023-05-08T04:14:03.327Z,11.32
2023-05-08T04:16:38.692Z,12.27
2023-05-08T04:19:14.480Z,9.50
2023-05-08T04:21:48.558Z,11.35
2023-05-08T04:24:20.071Z,10.35
2023-05-08T04:26:49.815Z,12.02
2023-05-08T04:29:20.581Z,8.00
2023-05-08T04:31:51.075Z,9.48
2023-05-08T04:34:23.684Z,7.93
2023-05-08T04:36:56.005Z,8.55
2023-05-08T04:39:25.596Z,6.88
2023-05-08T04:41:55.917Z,11.07
2023-05-08T04:44:25.750Z,9.52
2023-05-08T04:46:55.290Z,10.10
2023-05-08T04:49:24.855Z,8.15
2023-05-08T04:51:56.969Z,10.75
2023-05-08T04:54:26.618Z,9.10
2023-05-08T04:56:56.131Z,7.53
2023-05-08T04:59:26.024Z,8.82
2023-05-08T05:01:55.616Z,7.50
2023-05-08T05:04:25.274Z,9.15
2023-05-08T05:06:57.401Z,7.60
2023-05-08T05:09:26.928Z,9.38
2023-05-08T05:11:57.589Z,10.13
2023-05-08T05:14:27.780Z,10.27
2023-05-08T05:16:57.274Z,8.32
2023-05-08T05:19:27.362Z,7.70
2023-05-08T05:22:00.090Z,8.13
2023-05-08T05:24:29.624Z,9.55
2023-05-08T05:27:00.674Z,8.60
2023-05-08T05:29:30.458Z,8.68
2023-05-08T05:32:00.014Z,8.05
2023-05-08T05:34:29.951Z,9.95
2023-05-08T05:37:02.050Z,9.88
2023-05-08T05:39:31.543Z,8.57
2023-05-08T05:42:01.204Z,8.38
2023-05-08T05:44:30.743Z,8.88
2023-05-08T05:47:00.603Z,7.40
2023-05-08T05:49:30.210Z,5.93
2023-05-08T05:52:02.325Z,9.00
2023-05-08T05:54:31.934Z,9.73
2023-05-08T05:57:01.463Z,7.90
2023-05-08T05:59:30.961Z,9.68
2023-05-08T06:02:00.601Z,8.48
2023-05-08T06:04:30.415Z,5.70
2023-05-08T06:07:02.636Z,9.38
2023-05-08T06:09:32.190Z,8.63
2023-05-08T06:12:02.076Z,8.98
2023-05-08T06:14:31.596Z,8.90
2023-05-08T06:17:01.178Z,7.43
2023-05-08T06:19:30.702Z,12.52
2023-05-08T06:22:02.910Z,7.80
2023-05-08T06:24:32.517Z,10.55
2023-05-08T06:27:02.068Z,7.85
2023-05-08T06:29:31.606Z,8.00
2023-05-08T06:32:01.281Z,8.35
2023-05-08T06:34:31.660Z,7.53
2023-05-08T06:37:03.809Z,9.80
2023-05-08T06:39:33.285Z,7.80
2023-05-08T06:42:02.834Z,9.15
2023-05-08T06:44:32.380Z,9.90
2023-05-08T06:47:01.921Z,4.93
2023-05-08T06:49:31.542Z,7.97
2023-05-08T06:52:03.698Z,8.52
2023-05-08T06:54:33.249Z,10.38
2023-05-08T06:57:02.792Z,6.93
2023-05-08T06:59:32.329Z,9.02
2023-05-08T07:02:01.981Z,6.28
2023-05-08T07:04:32.272Z,8.05
2023-05-08T07:07:06.946Z,7.25
2023-05-08T07:09:36.548Z,8.60
2023-05-08T07:12:06.271Z,7.22
2023-05-08T07:14:35.805Z,11.02
2023-05-08T07:17:09.397Z,9.35
2023-05-08T07:19:39.489Z,6.07
2023-05-08T07:22:11.703Z,9.60
2023-05-08T07:24:41.268Z,9.23
2023-05-08T07:27:11.154Z,9.35
2023-05-08T07:29:41.353Z,9.30
2023-05-08T07:32:11.202Z,8.95
2023-05-08T07:34:40.899Z,9.43
2023-05-08T07:37:13.089Z,8.43
2023-05-08T07:39:42.688Z,9.82
2023-05-08T07:42:12.651Z,6.68
2023-05-08T07:44:53.633Z,8.43
2023-05-08T07:47:24.310Z,7.10
2023-05-08T07:49:53.803Z,8.50
2023-05-08T07:52:25.927Z,7.05
2023-05-08T07:54:55.476Z,6.90
2023-05-08T07:57:25.016Z,6.80
2023-05-08T07:59:54.507Z,7.20
2023-05-08T08:02:24.233Z,6.43
2023-05-08T08:04:53.792Z,6.15
2023-05-08T08:07:25.939Z,5.95
2023-05-08T08:09:55.937Z,8.45
2023-05-08T08:12:25.474Z,7.10
2023-05-08T08:14:55.217Z,8.00
2023-05-08T08:17:26.908Z,5.35
2023-05-08T08:19:58.148Z,5.93
2023-05-08T08:22:30.321Z,6.35
2023-05-08T08:25:00.018Z,6.65
2023-05-08T08:27:29.543Z,7.35
2023-05-08T08:30:15.160Z,7.93
2023-05-08T08:32:47.025Z,7.03
2023-05-08T08:35:17.114Z,6.65
2023-05-08T08:37:49.703Z,6.32
2023-05-08T08:40:19.271Z,6.20
2023-05-08T08:42:49.308Z,6.88
2023-05-08T08:45:18.934Z,7.40
2023-05-08T08:47:48.722Z,7.18
2023-05-08T08:50:19.657Z,5.80
2023-05-08T08:52:59.404Z,6.70
2023-05-08T08:55:29.276Z,6.45
2023-05-08T08:58:15.731Z,6.55
2023-05-08T09:03:15.690Z,5.93
2023-05-08T09:05:47.073Z,7.85
2023-05-08T09:08:21.083Z,5.20
2023-05-08T09:10:50.749Z,6.95
2023-05-08T09:13:20.441Z,6.43
2023-05-08T09:15:50.729Z,7.22
2023-05-08T09:18:20.506Z,6.40
2023-05-08T09:20:50.739Z,8.63
2023-05-08T09:23:23.307Z,6.63
2023-05-08T09:25:53.686Z,8.35
2023-05-08T09:28:25.333Z,7.60
2023-05-08T09:30:56.922Z,8.85
2023-05-08T09:33:28.652Z,7.25
2023-05-08T09:35:58.879Z,6.90
2023-05-08T09:38:39.366Z,7.55
2023-05-08T09:41:10.559Z,8.63
2023-05-08T09:43:40.748Z,7.05
2023-05-08T09:46:24.975Z,8.50
2023-05-08T09:48:56.652Z,8.63
2023-05-08T09:51:26.793Z,9.65
2023-05-08T09:54:00.740Z,7.63
2023-05-08T09:56:35.176Z,8.95
2023-05-08T09:59:06.592Z,9.73
2023-05-08T10:01:39.802Z,9.30
2023-05-08T10:04:09.495Z,7.70
2023-05-08T10:06:39.253Z,7.28
2023-05-08T10:09:15.876Z,5.90
2023-05-08T10:11:55.569Z,7.82
2023-05-08T10:14:26.638Z,8.18
2023-05-08T10:16:57.432Z,6.28
2023-05-08T10:19:28.564Z,8.82
2023-05-08T10:22:00.611Z,9.25
2023-05-08T10:24:36.280Z,10.15
2023-05-08T10:27:12.678Z,6.60
2023-05-08T10:29:48.557Z,8.80
2023-05-08T10:34:52.448Z,5.72
2023-05-08T10:37:22.610Z,10.38
2023-05-08T10:39:56.832Z,7.93
2023-05-08T10:42:26.880Z,15.05
2023-05-08T10:44:56.858Z,9.65
2023-05-08T10:47:33.492Z,8.73
2023-05-08T10:50:13.234Z,8.57
2023-05-08T10:52:50.707Z,8.63
2023-05-08T10:55:28.313Z,7.85
2023-05-08T10:58:15.320Z,8.52
2023-05-08T11:01:15.113Z,8.82
2023-05-08T11:03:51.015Z,8.20
2023-05-08T11:08:54.703Z,7.13
2023-05-08T11:11:33.672Z,7.07
2023-05-08T11:14:16.540Z,8.43
2023-05-08T11:17:07.595Z,9.65
2023-05-08T11:19:37.887Z,7.63
2023-05-08T11:22:18.268Z,10.00
2023-05-08T11:24:52.647Z,7.45
2023-05-08T11:27:34.344Z,9.35
2023-05-08T11:30:26.070Z,8.40
2023-05-08T11:33:00.030Z,6.22
2023-05-08T11:35:46.797Z,6.00
2023-05-08T11:38:34.373Z,7.20
2023-05-08T11:41:05.983Z,10.00
2023-05-08T11:44:14.880Z,9.48
2023-05-08T11:46:46.980Z,7.78
2023-05-08T11:49:23.854Z,11.32
2023-05-08T11:52:00.356Z,7.60
2023-05-08T11:54:33.014Z,6.65
2023-05-08T11:57:03.004Z,7.68
2023-05-08T11:59:38.381Z,7.45
2023-05-08T12:02:09.607Z,8.60
2023-05-08T12:04:49.191Z,8.48
2023-05-08T12:07:18.952Z,7.95
2023-05-08T12:09:49.491Z,5.00
2023-05-08T12:12:19.019Z,8.45
2023-05-08T12:14:54.793Z,7.47
2023-05-08T12:17:24.544Z,8.27
2023-05-08T12:20:04.252Z,6.97
2023-05-08T12:22:33.871Z,9.00
2023-05-08T12:25:03.511Z,7.45
2023-05-08T12:27:33.136Z,6.80
2023-05-08T12:30:09.474Z,8.88
2023-05-08T12:32:40.754Z,6.35
2023-05-08T12:35:11.953Z,7.47
2023-05-08T12:37:42.061Z,6.60
2023-05-08T12:40:28.235Z,6.60
2023-05-08T12:42:58.006Z,7.45
2023-05-08T12:45:33.438Z,7.45
2023-05-08T12:48:04.575Z,6.28
2023-05-08T12:50:37.907Z,7.93
2023-05-08T12:53:08.069Z,8.00
2023-05-08T12:55:39.975Z,5.88
2023-05-08T12:58:15.353Z,6.38
2023-05-08T13:03:26.082Z,6.63
2023-05-08T13:05:57.447Z,6.93
2023-05-08T13:08:33.734Z,7.07
2023-05-08T13:11:04.662Z,7.97
2023-05-08T13:13:35.496Z,6.18
2023-05-08T13:16:09.734Z,6.97
2023-05-08T13:18:40.643Z,7.57
2023-05-08T13:21:10.564Z,6.00
2023-05-08T13:23:40.128Z,8.95
2023-05-08T13:26:09.710Z,8.50
2023-05-08T13:28:39.268Z,12.13
2023-05-08T13:31:11.476Z,13.80
2023-05-08T13:33:41.009Z,6.88
2023-05-08T13:36:11.547Z,8.52
2023-05-08T13:38:41.107Z,5.70
2023-05-08T13:41:10.780Z,6.88
2023-05-08T13:43:40.417Z,5.75
2023-05-08T13:46:12.625Z,6.25
2023-05-08T13:48:42.172Z,6.80
2023-05-08T13:51:11.737Z,5.78
2023-05-08T13:53:41.286Z,9.32
2023-05-08T13:56:11.228Z,6.72
2023-05-08T13:58:41.167Z,6.80
2023-05-08T14:01:25.817Z,8.77
2023-05-08T14:03:56.440Z,7.20
2023-05-08T14:06:26.072Z,6.35
2023-05-08T14:08:57.131Z,4.68
2023-05-08T14:11:27.412Z,4.68
2023-05-08T14:13:56.943Z,5.70
2023-05-08T14:16:29.166Z,6.22
2023-05-08T14:18:58.745Z,6.28
2023-05-08T14:21:28.418Z,8.35
2023-05-08T14:23:57.983Z,7.45
2023-05-08T14:26:27.571Z,5.50
2023-05-08T14:28:57.142Z,6.90
2023-05-08T14:31:29.276Z,7.05
2023-05-08T14:33:58.882Z,6.80
2023-05-08T14:36:28.441Z,6.65
2023-05-08T14:38:57.984Z,6.45
2023-05-08T14:41:30.644Z,6.45
2023-05-08T14:44:01.409Z,5.35
2023-05-08T14:46:33.611Z,4.05
2023-05-08T14:49:03.235Z,8.65
2023-05-08T14:51:32.858Z,5.85
2023-05-08T14:54:02.619Z,6.93
2023-05-08T14:56:44.228Z,6.25
2023-05-08T14:59:16.450Z,6.78
2023-05-08T15:01:48.622Z,6.32
2023-05-08T15:04:18.301Z,7.97
2023-05-08T15:06:48.027Z,7.97
2023-05-08T15:09:18.363Z,5.93
2023-05-08T15:11:47.972Z,5.78
2023-05-08T15:14:17.515Z,5.95
2023-05-08T15:16:49.693Z,5.35
2023-05-08T15:19:19.631Z,7.47
2023-05-08T15:21:49.180Z,5.85
2023-05-08T15:24:18.753Z,6.38
2023-05-08T15:26:48.309Z,8.85
2023-05-08T15:29:17.847Z,8.60
2023-05-08T15:31:49.979Z,7.70
2023-05-08T15:34:19.543Z,13.05
2023-05-08T15:36:49.067Z,4.40
2023-05-08T15:39:18.950Z,6.90
2023-05-08T15:41:48.628Z,5.45
2023-05-08T15:44:18.135Z,6.88
2023-05-08T15:46:50.337Z,5.00
2023-05-08T15:49:20.163Z,9.38
2023-05-08T15:51:49.790Z,6.30
2023-05-08T15:54:19.566Z,6.90
2023-05-08T15:56:49.095Z,7.47
2023-05-08T15:59:18.639Z,5.72
2023-05-08T16:01:52.067Z,7.13
2023-05-08T16:04:22.509Z,4.20
2023-05-08T16:06:52.034Z,6.88
2023-05-08T16:09:21.660Z,4.45
2023-05-08T16:11:51.245Z,6.88
2023-05-08T16:14:20.887Z,5.82
2023-05-08T16:16:52.994Z,7.07
2023-05-08T16:19:22.534Z,6.53
2023-05-08T16:21:52.171Z,5.93
2023-05-08T16:24:21.854Z,5.20
2023-05-08T16:26:51.637Z,6.20
2023-05-08T16:29:21.149Z,5.53
2023-05-08T16:31:53.460Z,5.90
2023-05-08T16:34:23.148Z,8.55
2023-05-08T16:36:52.694Z,5.90
2023-05-08T16:39:22.228Z,5.80
2023-05-08T16:41:51.751Z,7.55
2023-05-08T16:44:21.296Z,5.82
2023-05-08T16:46:53.461Z,6.18
2023-05-08T16:49:23.032Z,5.53
2023-05-08T16:51:52.604Z,4.55
2023-05-08T16:54:22.176Z,5.10
2023-05-08T16:56:51.751Z,6.30
2023-05-08T16:59:21.298Z,5.32
2023-05-08T17:01:53.451Z,5.75
2023-05-08T17:04:23.022Z,5.43
2023-05-08T17:06:52.740Z,5.43
2023-05-08T17:09:22.313Z,6.00
2023-05-08T17:11:51.856Z,6.18
2023-05-08T17:14:22.091Z,4.63
2023-05-08T17:16:54.173Z,4.13
2023-05-08T17:19:23.711Z,4.90
2023-05-08T17:21:53.249Z,4.82
2023-05-08T17:24:22.849Z,5.00
2023-05-08T17:26:52.420Z,7.40
2023-05-08T17:29:22.019Z,6.07
2023-05-08T17:31:54.294Z,3.97
2023-05-08T17:34:24.251Z,5.53
2023-05-08T17:36:55.105Z,4.93
2023-05-08T17:39:25.176Z,8.32
2023-05-08T17:41:55.820Z,5.72
2023-05-08T17:44:25.493Z,5.07
2023-05-08T17:46:57.680Z,6.45
2023-05-08T17:49:27.243Z,4.50
2023-05-08T17:51:57.850Z,6.10
2023-05-08T17:54:27.681Z,8.60
2023-05-08T17:56:57.235Z,7.03
2023-05-08T17:59:26.904Z,4.97
2023-05-08T18:01:59.153Z,6.75
2023-05-08T18:04:29.061Z,5.07
2023-05-08T18:07:01.432Z,4.97
2023-05-08T18:09:31.118Z,6.65
2023-05-08T18:12:02.734Z,7.47
2023-05-08T18:14:32.846Z,6.95
2023-05-08T18:17:05.868Z,6.90
2023-05-08T18:19:35.612Z,6.38
2023-05-08T18:22:05.194Z,7.88
2023-05-08T18:24:34.730Z,6.75
2023-05-08T18:27:04.285Z,6.13
2023-05-08T18:29:33.795Z,9.25
2023-05-08T18:32:06.162Z,9.85
2023-05-08T18:34:35.774Z,6.00
2023-05-08T18:37:05.379Z,7.47
2023-05-08T18:39:34.965Z,6.60
2023-05-08T18:42:04.766Z,7.90
2023-05-08T18:44:34.342Z,7.00
2023-05-08T18:47:06.882Z,6.72
2023-05-08T18:49:36.485Z,9.70
2023-05-08T18:52:06.162Z,9.57
2023-05-08T18:54:35.759Z,8.27
2023-05-08T18:57:05.348Z,6.70
2023-05-08T18:59:34.949Z,8.25
2023-05-08T19:02:07.106Z,10.95
2023-05-08T19:04:36.772Z,8.80
2023-05-08T19:07:06.319Z,8.00
2023-05-08T19:09:36.452Z,9.40
2023-05-08T19:12:06.221Z,6.93
2023-05-08T19:14:35.802Z,8.27
2023-05-08T19:17:07.975Z,9.00
2023-05-08T19:19:37.553Z,7.85
2023-05-08T19:22:07.467Z,8.43
2023-05-08T19:24:37.082Z,7.68
2023-05-08T19:27:06.893Z,7.55
2023-05-08T19:29:36.491Z,8.10
2023-05-08T19:32:08.668Z,9.77
2023-05-08T19:34:39.611Z,7.68
2023-05-08T19:37:09.251Z,7.72
2023-05-08T19:39:38.940Z,7.80
2023-05-08T19:42:10.456Z,7.05
2023-05-08T19:44:40.409Z,8.82
2023-05-08T19:47:12.590Z,7.90
2023-05-08T19:49:42.245Z,7.50
2023-05-08T19:52:11.869Z,7.28
2023-05-08T19:54:41.481Z,10.85
2023-05-08T19:57:11.080Z,8.88
2023-05-08T19:59:40.693Z,8.70
2023-05-08T20:02:12.819Z,10.93
2023-05-08T20:05:10.462Z,7.28
2023-05-08T20:07:31.915Z,8.25
2023-05-08T20:10:01.497Z,9.48
2023-05-08T20:12:31.121Z,7.00
2023-05-08T20:15:00.621Z,10.57
2023-05-08T20:17:32.895Z,8.80
2023-05-08T20:20:02.513Z,7.63
2023-05-08T20:22:32.083Z,9.00
2023-05-08T20:25:04.253Z,10.98
2023-05-08T20:27:34.343Z,10.02
2023-05-08T20:30:03.919Z,8.95
2023-05-08T20:32:36.109Z,8.38
2023-05-08T20:35:06.084Z,9.07
2023-05-08T20:37:35.626Z,10.57
2023-05-08T20:40:05.227Z,8.32
2023-05-08T20:42:34.752Z,9.55
2023-05-08T20:45:04.302Z,11.30
2023-05-08T20:47:36.456Z,13.18
2023-05-08T20:50:07.446Z,10.18
2023-05-08T20:52:38.477Z,11.75
2023-05-08T20:55:11.356Z,10.00
2023-05-08T20:57:41.061Z,10.43
2023-05-08T21:00:12.141Z,9.25
2023-05-08T21:02:44.695Z,11.07
2023-05-08T21:05:14.364Z,11.00
2023-05-08T21:07:44.116Z,10.80
2023-05-08T21:10:14.710Z,11.98
2023-05-08T21:12:45.581Z,12.60
2023-05-08T21:15:15.336Z,12.52
2023-05-08T21:17:47.576Z,9.52
2023-05-08T21:20:17.355Z,8.70
2023-05-08T21:22:50.193Z,10.25
2023-05-08T21:25:21.469Z,12.07
2023-05-08T21:27:51.928Z,10.18
2023-05-08T21:30:22.671Z,9.50
2023-05-08T21:32:54.848Z,11.82
2023-05-08T21:35:24.660Z,9.57
2023-05-08T21:37:54.835Z,10.02
2023-05-08T21:40:24.608Z,11.27
2023-05-08T21:42:54.338Z,11.27
2023-05-08T21:45:24.149Z,11.73
2023-05-08T21:47:56.330Z,12.13
2023-05-08T21:50:25.881Z,12.82
2023-05-08T21:52:56.610Z,12.55
2023-05-08T21:55:26.735Z,11.88
2023-05-08T21:57:56.300Z,11.95
2023-05-08T22:00:27.019Z,13.20
2023-05-08T22:02:59.288Z,11.75
2023-05-08T22:05:28.886Z,13.77
2023-05-08T22:07:58.422Z,12.30
2023-05-08T22:10:28.280Z,13.63
2023-05-08T22:12:57.873Z,15.90
2023-05-08T22:15:30.272Z,12.75
2023-05-08T22:18:03.244Z,14.35
2023-05-08T22:20:33.014Z,12.48
2023-05-08T22:23:02.576Z,12.80
2023-05-08T22:25:32.124Z,11.48
2023-05-08T22:28:01.708Z,12.50
2023-05-08T22:30:31.305Z,11.13
2023-05-08T22:33:04.040Z,10.43
2023-05-08T22:35:34.552Z,10.60
2023-05-08T22:38:04.166Z,11.20
2023-05-08T22:40:33.740Z,15.65
2023-05-08T22:43:03.849Z,11.05
2023-05-08T22:45:34.792Z,10.23
2023-05-08T22:48:07.560Z,11.98
2023-05-08T22:50:38.411Z,10.60
2023-05-08T22:53:08.473Z,13.15
2023-05-08T22:55:38.082Z,11.30
2023-05-08T22:58:08.052Z,10.48
2023-05-08T23:00:37.705Z,12.15
2023-05-08T23:03:09.856Z,11.05
2023-05-08T23:05:39.521Z,11.65
2023-05-08T23:08:09.325Z,10.30
2023-05-08T23:10:38.925Z,9.50
2023-05-08T23:13:08.531Z,12.93
2023-05-08T23:15:38.182Z,12.25
2023-05-08T23:18:10.390Z,12.43
2023-05-08T23:20:39.975Z,12.30
2023-05-08T23:23:10.450Z,13.07
2023-05-08T23:25:40.261Z,15.02
2023-05-08T23:28:09.862Z,15.20
2023-05-08T23:30:39.387Z,12.35
2023-05-08T23:33:11.469Z,12.00
2023-05-08T23:35:41.019Z,15.52
2023-05-08T23:38:10.789Z,13.43
2023-05-08T23:40:40.525Z,14.85
2023-05-08T23:43:10.076Z,12.45
2023-05-08T23:45:39.597Z,11.73
2023-05-08T23:48:12.785Z,14.80
2023-05-08T23:50:43.054Z,12.50
2023-05-08T23:53:12.593Z,13.55
2023-05-08T23:55:42.154Z,14.80
2023-05-08T23:58:17.486Z,14.07
